createdAt,value
2023-05-21T00:04:45.038Z,52097.69
2023-05-21T00:09:49.214Z,52105.69
2023-05-21T00:14:53.810Z,52109.69
2023-05-21T00:20:00.344Z,52093.69
2023-05-21T00:25:05.202Z,52127.69
2023-05-21T00:30:10.133Z,52093.69
2023-05-21T00:35:16.529Z,52119.69
2023-05-21T00:40:20.986Z,52089.69
2023-05-21T00:45:25.819Z,52083.69
2023-05-21T00:50:32.332Z,52057.69
2023-05-21T00:55:36.843Z,52073.69
2023-05-21T01:00:41.990Z,52081.69
2023-05-21T01:05:49.231Z,52109.69
2023-05-21T01:10:54.502Z,52113.69
2023-05-21T01:15:59.491Z,52105.69
2023-05-21T01:21:07.607Z,52081.69
2023-05-21T01:26:14.317Z,52099.69
2023-05-21T01:31:25.514Z,52107.69
2023-05-21T01:36:41.090Z,52089.69
2023-05-21T01:41:47.537Z,52121.69
2023-05-21T01:46:54.132Z,52107.69
2023-05-21T01:51:58.815Z,52127.69
2023-05-21T01:57:05.012Z,52139.69
2023-05-21T02:02:09.432Z,52133.69
2023-05-21T02:07:15.399Z,52117.69
2023-05-21T02:12:22.249Z,52101.69
2023-05-21T02:17:26.739Z,52095.69
2023-05-21T02:22:31.562Z,52103.69
2023-05-21T02:27:37.963Z,52089.69
2023-05-21T02:32:43.308Z,52085.69
2023-05-21T02:37:49.205Z,52091.69
2023-05-21T02:42:55.185Z,52077.69
2023-05-21T02:47:59.723Z,52077.69
2023-05-21T02:53:04.631Z,52047.69
2023-05-21T02:58:13.884Z,52061.69
2023-05-21T03:03:19.045Z,52029.69
2023-05-21T03:08:23.508Z,52057.69
2023-05-21T03:13:29.594Z,52041.69
2023-05-21T03:18:34.234Z,52039.69
2023-05-21T03:23:38.605Z,52007.69
2023-05-21T03:28:44.688Z,52031.69
2023-05-21T03:33:49.758Z,52077.69
2023-05-21T03:39:07.156Z,52027.69
2023-05-21T03:44:13.693Z,52029.69
2023-05-21T03:49:40.096Z,52063.69
2023-05-21T03:54:46.284Z,51977.69
2023-05-21T03:59:52.358Z,52005.69
2023-05-21T04:04:57.032Z,52005.69
2023-05-21T04:10:02.427Z,51985.69
2023-05-21T04:15:09.861Z,52021.69
2023-05-21T04:20:17.186Z,51997.69
2023-05-21T04:25:23.441Z,52031.69
2023-05-21T04:30:29.488Z,52037.69
2023-05-21T04:35:34.246Z,52023.69
2023-05-21T04:40:38.818Z,52043.69
2023-05-21T04:45:44.691Z,52009.69
2023-05-21T04:50:48.928Z,52061.69
2023-05-21T04:55:53.544Z,52031.69
2023-05-21T05:01:03.300Z,52081.69
2023-05-21T05:06:09.289Z,52085.69
2023-05-21T05:11:14.222Z,52117.69
2023-05-21T05:16:25.588Z,52075.69
2023-05-21T05:21:33.437Z,52049.69
2023-05-21T05:26:39.003Z,52101.69
2023-05-21T05:31:44.678Z,52123.69
2023-05-21T05:36:50.367Z,52125.69
2023-05-21T05:41:54.826Z,52189.72
2023-05-21T05:47:00.512Z,52175.69
2023-05-21T05:52:06.104Z,52265.72
2023-05-21T05:57:10.764Z,52779.78
2023-05-21T06:02:17.706Z,53537.97
2023-05-21T06:07:22.315Z,53576.00
2023-05-21T06:12:27.084Z,54146.25
2023-05-21T06:17:34.132Z,53850.09
2023-05-21T06:22:39.432Z,54786.63
2023-05-21T06:27:45.738Z,54038.19
2023-05-21T06:32:58.585Z,54550.47
2023-05-21T06:38:03.316Z,55649.31
2023-05-21T06:43:08.017Z,55807.47
2023-05-21T06:48:43.487Z,55979.63
2023-05-21T06:53:48.271Z,55363.06
2023-05-21T06:58:53.468Z,56187.84
2023-05-21T07:04:00.148Z,56552.25
2023-05-21T07:09:05.694Z,56918.69
2023-05-21T07:14:10.583Z,57521.47
2023-05-21T07:19:17.673Z,56676.38
2023-05-21T07:24:22.487Z,56554.25
2023-05-21T07:29:27.047Z,57483.41
2023-05-21T07:34:33.316Z,57154.97
2023-05-21T07:39:38.027Z,55955.63
2023-05-21T07:44:43.498Z,56806.53
2023-05-21T07:49:49.204Z,57497.44
2023-05-21T07:54:53.776Z,57631.63
2023-05-21T07:59:59.411Z,58426.81
2023-05-21T08:05:08.114Z,57489.41
2023-05-21T08:10:12.853Z,58034.19
2023-05-21T08:15:17.775Z,57998.16
2023-05-21T08:20:24.851Z,57205.03
2023-05-21T08:25:29.814Z,57932.03
2023-05-21T08:30:35.427Z,57585.56
2023-05-21T08:35:41.714Z,55591.28
2023-05-21T08:41:02.118Z,56528.22
2023-05-21T08:46:08.158Z,55178.94
2023-05-21T08:51:16.667Z,55737.41
2023-05-21T08:56:26.170Z,55363.06
2023-05-21T09:01:34.790Z,54806.66
2023-05-21T09:06:48.292Z,54480.44
2023-05-21T09:11:57.875Z,54534.47
2023-05-21T09:17:02.146Z,54010.19
2023-05-21T09:22:08.402Z,54554.50
2023-05-21T09:27:12.800Z,54300.34
2023-05-21T09:32:19.303Z,53790.09
2023-05-21T09:37:27.395Z,53688.03
2023-05-21T09:42:32.486Z,53193.88
2023-05-21T09:47:42.838Z,53351.91
2023-05-21T09:52:50.626Z,53169.84
2023-05-21T09:57:55.068Z,53371.91
2023-05-21T10:03:03.155Z,53245.88
2023-05-21T10:08:12.609Z,53247.88
2023-05-21T10:13:17.892Z,53151.84
2023-05-21T10:18:23.833Z,53584.00
2023-05-21T10:23:30.616Z,53618.00
2023-05-21T10:28:35.370Z,53383.91
2023-05-21T10:33:40.272Z,53409.94
2023-05-21T10:38:47.107Z,53553.97
2023-05-21T10:44:02.620Z,53369.91
2023-05-21T10:49:27.073Z,53301.91
2023-05-21T10:54:55.868Z,53157.84
2023-05-21T11:00:01.118Z,53041.81
2023-05-21T11:05:06.292Z,53065.84
2023-05-21T11:10:37.577Z,53087.84
2023-05-21T11:16:06.021Z,53157.84
2023-05-21T11:21:11.852Z,53135.84
2023-05-21T11:26:21.694Z,53383.91
2023-05-21T11:31:34.465Z,53323.91
2023-05-21T11:36:39.297Z,53169.84
2023-05-21T11:42:03.092Z,53225.88
2023-05-21T11:47:10.236Z,53393.94
2023-05-21T11:52:15.584Z,53353.91
2023-05-21T11:57:21.415Z,53101.84
2023-05-21T12:02:27.760Z,52999.81
2023-05-21T12:07:32.148Z,53309.91
2023-05-21T12:12:53.261Z,53321.91
2023-05-21T12:17:59.276Z,53287.88
2023-05-21T12:23:03.670Z,53441.94
2023-05-21T12:28:09.394Z,53557.97
2023-05-21T12:33:14.383Z,53830.09
2023-05-21T12:38:18.842Z,53834.09
2023-05-21T12:43:24.814Z,53826.09
2023-05-21T12:48:29.303Z,53682.03
2023-05-21T12:53:38.370Z,54602.50
2023-05-21T12:58:44.387Z,55581.25
2023-05-21T13:03:49.012Z,55373.09
2023-05-21T13:08:53.265Z,55763.44
2023-05-21T13:13:59.037Z,55367.09
2023-05-21T13:19:03.563Z,55068.84
2023-05-21T13:24:08.771Z,55529.22
2023-05-21T13:29:15.435Z,55999.66
2023-05-21T13:34:19.692Z,55567.25
2023-05-21T13:39:27.807Z,55877.53
2023-05-21T13:44:36.482Z,55653.34
2023-05-21T13:49:41.593Z,55096.88
2023-05-21T13:54:46.152Z,55411.13
2023-05-21T13:59:51.950Z,54630.53
2023-05-21T14:04:58.035Z,54874.69
2023-05-21T14:10:03.125Z,54078.22
2023-05-21T14:15:10.027Z,54338.34
2023-05-21T14:20:14.640Z,54472.44
2023-05-21T14:25:19.276Z,54206.28
2023-05-21T14:30:24.981Z,54042.19
2023-05-21T14:35:29.173Z,54054.19
2023-05-21T14:40:33.273Z,53864.13
2023-05-21T14:45:39.276Z,53774.06
2023-05-21T14:50:43.781Z,53525.97
2023-05-21T14:55:48.117Z,53592.00
2023-05-21T15:00:53.839Z,53199.88
2023-05-21T15:05:58.868Z,53233.88
2023-05-21T15:11:03.100Z,53407.94
2023-05-21T15:16:09.449Z,53149.84
2023-05-21T15:21:13.634Z,53125.84
2023-05-21T15:26:18.057Z,53027.81
2023-05-21T15:31:23.693Z,52933.81
2023-05-21T15:36:28.222Z,53045.81
2023-05-21T15:41:36.548Z,52669.75
2023-05-21T15:46:42.421Z,52595.75
2023-05-21T15:51:47.076Z,52467.72
2023-05-21T15:56:52.012Z,52563.72
2023-05-21T16:01:58.357Z,52539.72
2023-05-21T16:07:02.786Z,52331.72
2023-05-21T16:12:07.859Z,52287.72
2023-05-21T16:17:13.690Z,52279.72
2023-05-21T16:22:20.429Z,52235.72
2023-05-21T16:27:25.386Z,52155.69
2023-05-21T16:32:31.012Z,52099.69
2023-05-21T16:37:35.706Z,51701.72
2023-05-21T16:42:40.010Z,51481.75
2023-05-21T16:47:45.762Z,51245.78
2023-05-21T16:52:50.169Z,51267.78
2023-05-21T16:57:54.645Z,51195.78
2023-05-21T17:03:00.567Z,51135.81
2023-05-21T17:08:05.408Z,51075.81
2023-05-21T17:13:21.589Z,51103.81
2023-05-21T17:18:28.075Z,51045.84
2023-05-21T17:23:32.288Z,51015.84
2023-05-21T17:28:36.839Z,50985.84
2023-05-21T17:33:42.623Z,50957.84
2023-05-21T17:38:47.159Z,50921.88
2023-05-21T17:43:51.312Z,50873.88
2023-05-21T17:48:56.898Z,50869.88
2023-05-21T17:54:01.529Z,50765.91
2023-05-21T17:59:05.934Z,50795.91
2023-05-21T18:04:13.136Z,50753.91
2023-05-21T18:09:17.483Z,50721.94
2023-05-21T18:14:22.184Z,50669.94
2023-05-21T18:19:27.904Z,50703.94
2023-05-21T18:24:32.172Z,50685.94
2023-05-21T18:29:36.915Z,50617.97
2023-05-21T18:34:43.882Z,50595.97
2023-05-21T18:39:48.021Z,50633.97
2023-05-21T18:44:52.859Z,50577.97
2023-05-21T18:49:58.526Z,50550.00
2023-05-21T18:55:02.783Z,50538.00
2023-05-21T19:00:09.792Z,50526.00
2023-05-21T19:05:16.219Z,50498.00
2023-05-21T19:10:21.486Z,50456.03
2023-05-21T19:15:25.763Z,50458.03
2023-05-21T19:20:31.462Z,50438.03
2023-05-21T19:25:36.384Z,50406.06
2023-05-21T19:30:40.793Z,50434.03
2023-05-21T19:35:48.122Z,50404.06
2023-05-21T19:40:52.271Z,50406.06
2023-05-21T19:45:57.326Z,50354.06
2023-05-21T19:51:03.032Z,50358.06
2023-05-21T19:56:08.112Z,50376.06
2023-05-21T20:01:12.473Z,50332.09
2023-05-21T20:06:20.891Z,50310.09
2023-05-21T20:11:25.429Z,50292.09
2023-05-21T20:16:30.331Z,50292.09
2023-05-21T20:21:38.417Z,50218.13
2023-05-21T20:26:45.055Z,50234.13
2023-05-21T20:31:49.217Z,50248.13
2023-05-21T20:36:58.364Z,50254.13
2023-05-21T20:42:02.754Z,50186.16
2023-05-21T20:47:07.414Z,50164.16
2023-05-21T20:52:13.078Z,50154.16
2023-05-21T20:57:17.540Z,50146.16
2023-05-21T21:02:23.124Z,50158.16
2023-05-21T21:07:32.115Z,50132.19
2023-05-21T21:12:36.607Z,50090.19
2023-05-21T21:17:40.913Z,50074.19
2023-05-21T21:22:46.835Z,50054.22
2023-05-21T21:27:50.950Z,50046.22
2023-05-21T21:32:55.489Z,50042.22
2023-05-21T21:38:01.047Z,50050.22
2023-05-21T21:43:05.215Z,50030.22
2023-05-21T21:48:09.424Z,50026.22
2023-05-21T21:53:15.298Z,49994.25
2023-05-21T21:58:19.451Z,50010.22
2023-05-21T22:03:23.873Z,49972.25
2023-05-21T22:08:29.700Z,49952.25
2023-05-21T22:13:34.760Z,49940.28
2023-05-21T22:18:41.259Z,49954.25
2023-05-21T22:23:47.622Z,49938.28
2023-05-21T22:28:52.317Z,49894.28
2023-05-21T22:33:56.414Z,49904.28
2023-05-21T22:39:01.981Z,49894.28
2023-05-21T22:44:06.710Z,49872.31
2023-05-21T22:49:11.485Z,49900.28
2023-05-21T22:54:17.084Z,49868.31
2023-05-21T22:59:21.388Z,49842.31
2023-05-21T23:04:35.781Z,49840.31
2023-05-21T23:09:46.991Z,49824.34
2023-05-21T23:14:51.448Z,49816.34
2023-05-21T23:19:56.401Z,49834.34
2023-05-21T23:25:02.200Z,49832.34
2023-05-21T23:30:07.641Z,49800.34
2023-05-21T23:35:12.020Z,49802.34
2023-05-21T23:40:17.741Z,49786.34
2023-05-21T23:45:21.972Z,49772.38
2023-05-21T23:50:27.263Z,49764.38
2023-05-21T23:55:32.794Z,49768.38
